Gerald Majors — WDF5077 — position and weather

sailwx.info

Track history (hours):
 
Tides and Currents Weather Stations Pressure Air Temp Water Temp Dewpoint Dewpoint Depression Visibility Wind Speed Wind Dir Waves Ship Positions

Gerald Majors

Owner: Pine Bluff Sand & Gravel Co., Pine Bluff, AR. More information available from US FCC via Universal Licensing System and Coast Guard Vessel Documentation Center.

Last reported at 2017-Oct-17 08:26 UTC. Time now 2017-Oct-23 06:27 UTC.
Position N 32°45' W 091°09'.

Length 56 m; draft 2.5 m.

Type: Towing. MMSI: 367459110.

Date/timePositionNaut miles runAvg speedWind from/ knotsBaromVisibWave heightAir tempDewpointWater temp
2017-Oct-17 08:26N 32°45' W 091°09'5 1.2
2017-Oct-17 04:03N 32°40' W 091°07'0 3.8
2017-Oct-17 03:58N 32°40' W 091°08'3 3.0
2017-Oct-17 03:03N 32°38' W 091°09'1 3.9
2017-Oct-17 02:47N 32°37' W 091°09'1 4.2
2017-Oct-17 02:31N 32°36' W 091°08'2 3.7
2017-Oct-17 02:01N 32°35' W 091°07'2 3.6
2017-Oct-17 01:28N 32°33' W 091°06'3 4.6
2017-Oct-17 00:53N 32°30' W 091°07'2 4.6
2017-Oct-17 00:30N 32°28' W 091°07'2 4.4
2017-Oct-17 00:01N 32°27' W 091°05'2 4.3
2017-Oct-16 23:31N 32°26' W 091°02'2 4.1
2017-Oct-16 23:01N 32°25' W 091°00'2 3.3
2017-Oct-16 22:31N 32°24' W 090°59'2 3.3
2017-Oct-16 22:01N 32°22' W 091°00'0 0.0
2017-Oct-16 21:31N 32°22' W 091°00'0 0.0
2017-Oct-16 21:01N 32°22' W 091°00'1 1.2
2017-Oct-16 20:31N 32°22' W 091°00'2 4.2
2017-Oct-16 20:01N 32°21' W 090°58'2 4.3
2017-Oct-16 19:31N 32°21' W 090°55'2 3.4
2017-Oct-16 19:01N 32°20' W 090°54'2 4.2
2017-Oct-16 18:31N 32°18' W 090°55'0 0.3
2017-Oct-16 18:01N 32°18' W 090°55'0 0.0
2017-Oct-16 17:30N 32°18' W 090°55'0 0.0
2017-Oct-16 17:01N 32°18' W 090°55'0 0.1
2017-Oct-16 16:31N 32°18' W 090°55'0 0.7
2017-Oct-16 16:01N 32°18' W 090°56'1 1.1
2017-Oct-16 15:31N 32°17' W 090°56'1 2.1
2017-Oct-16 15:01N 32°17' W 090°57'1 1.9
2017-Oct-16 14:31N 32°16' W 090°58'2 2.1
2017-Oct-16 13:31N 32°14' W 090°59'1 2.2
2017-Oct-16 13:01N 32°13' W 090°59'2 4.2
2017-Oct-16 12:31N 32°11' W 090°60'2 3.8
2017-Oct-16 12:01N 32°09' W 091°00'1 2.7
2017-Oct-16 11:31N 32°08' W 091°01'2 3.5
2017-Oct-16 11:00N 32°07' W 091°03'2 2.9
2017-Oct-16 10:26N 32°08' W 091°04'0 0.0
2017-Oct-16 09:58N 32°08' W 091°04'1 1.5
2017-Oct-16 09:11N 32°08' W 091°06'1 4.2
2017-Oct-16 09:00N 32°08' W 091°06'5 1.9
2017-Oct-16 06:25N 32°04' W 091°03'2 4.8
2017-Oct-16 05:54N 32°01' W 091°04'7 4.2
2017-Oct-16 04:19N 31°58' W 091°11'  
2017-Oct-07 10:40N 32°01' W 091°05'1 7.2
2017-Oct-07 10:31N 32°02' W 091°04'5 6.4
2017-Oct-07 09:43N 32°06' W 091°06'1 5.8
2017-Oct-07 09:31N 32°08' W 091°06'3 5.8
2017-Oct-07 08:58N 32°07' W 091°03'3 6.0
2017-Oct-07 08:31N 32°09' W 091°00'  
Track history (hours):
 
Tides and Currents Weather Stations Pressure Air Temp Water Temp Dewpoint Dewpoint Depression Visibility Wind Speed Wind Dir Waves Ship Positions

Gerald Majors

Owner: Pine Bluff Sand & Gravel Co., Pine Bluff, AR. More information available from US FCC via Universal Licensing System and Coast Guard Vessel Documentation Center.

Last reported at 2017-Oct-17 08:26 UTC. Time now 2017-Oct-23 06:27 UTC.
Position N 32°45' W 091°09'.

Length 56 m; draft 2.5 m.

Type: Towing. MMSI: 367459110.

Date/timePositionNaut miles runAvg speedWind from/ knotsBaromVisibWave heightAir tempDewpointWater temp
2017-Oct-17 08:26N 32°45' W 091°09'5 1.2
2017-Oct-17 04:03N 32°40' W 091°07'0 3.8
2017-Oct-17 03:58N 32°40' W 091°08'3 3.0
2017-Oct-17 03:03N 32°38' W 091°09'1 3.9
2017-Oct-17 02:47N 32°37' W 091°09'1 4.2
2017-Oct-17 02:31N 32°36' W 091°08'2 3.7
2017-Oct-17 02:01N 32°35' W 091°07'2 3.6
2017-Oct-17 01:28N 32°33' W 091°06'3 4.6
2017-Oct-17 00:53N 32°30' W 091°07'2 4.6
2017-Oct-17 00:30N 32°28' W 091°07'2 4.4
2017-Oct-17 00:01N 32°27' W 091°05'2 4.3
2017-Oct-16 23:31N 32°26' W 091°02'2 4.1
2017-Oct-16 23:01N 32°25' W 091°00'2 3.3
2017-Oct-16 22:31N 32°24' W 090°59'2 3.3
2017-Oct-16 22:01N 32°22' W 091°00'0 0.0
2017-Oct-16 21:31N 32°22' W 091°00'0 0.0
2017-Oct-16 21:01N 32°22' W 091°00'1 1.2
2017-Oct-16 20:31N 32°22' W 091°00'2 4.2
2017-Oct-16 20:01N 32°21' W 090°58'2 4.3
2017-Oct-16 19:31N 32°21' W 090°55'2 3.4
2017-Oct-16 19:01N 32°20' W 090°54'2 4.2
2017-Oct-16 18:31N 32°18' W 090°55'0 0.3
2017-Oct-16 18:01N 32°18' W 090°55'0 0.0
2017-Oct-16 17:30N 32°18' W 090°55'0 0.0
2017-Oct-16 17:01N 32°18' W 090°55'0 0.1
2017-Oct-16 16:31N 32°18' W 090°55'0 0.7
2017-Oct-16 16:01N 32°18' W 090°56'1 1.1
2017-Oct-16 15:31N 32°17' W 090°56'1 2.1
2017-Oct-16 15:01N 32°17' W 090°57'1 1.9
2017-Oct-16 14:31N 32°16' W 090°58'2 2.1
2017-Oct-16 13:31N 32°14' W 090°59'1 2.2
2017-Oct-16 13:01N 32°13' W 090°59'2 4.2
2017-Oct-16 12:31N 32°11' W 090°60'2 3.8
2017-Oct-16 12:01N 32°09' W 091°00'1 2.7
2017-Oct-16 11:31N 32°08' W 091°01'2 3.5
2017-Oct-16 11:00N 32°07' W 091°03'2 2.9
2017-Oct-16 10:26N 32°08' W 091°04'0 0.0
2017-Oct-16 09:58N 32°08' W 091°04'1 1.5
2017-Oct-16 09:11N 32°08' W 091°06'1 4.2
2017-Oct-16 09:00N 32°08' W 091°06'5 1.9
2017-Oct-16 06:25N 32°04' W 091°03'2 4.8
2017-Oct-16 05:54N 32°01' W 091°04'7 4.2
2017-Oct-16 04:19N 31°58' W 091°11'  
2017-Oct-07 10:40N 32°01' W 091°05'1 7.2
2017-Oct-07 10:31N 32°02' W 091°04'5 6.4
2017-Oct-07 09:43N 32°06' W 091°06'1 5.8
2017-Oct-07 09:31N 32°08' W 091°06'3 5.8
2017-Oct-07 08:58N 32°07' W 091°03'3 6.0
2017-Oct-07 08:31N 32°09' W 091°00'  

Dump ship's entire track history